Terminal Aerodrome Forecast
Issued by NWS

Home | Current Version | Previous Version | Text Only | Print | Product List | Glossary On
Versions: 1 2 3 4 5 6 7 8 9 10 11 12 13 14 15 16 17 18 19 20 21 22
881
FTUS41 KOKX 122339
TAFHPN
TAF
KHPN 122339Z 1300/1324 26004KT P6SM BKN060
     FM130700 28007KT P6SM SCT020 BKN035
     FM131000 30016G24KT P6SM SCT035 BKN070
     FM131300 31026G35KT P6SM SCT050
      AMD NOT SKED=

USA.gov is the U.S. government's official web portal to all federal, state and local government web resources and services.